Latest Weather Observations for Gunnedah Airport

IDN60801

Issued at 6:32 pm EST Saturday 25 April 2015 (issued every 30 minutes, with the page automatically refreshed every 10 minutes)

About weather observations | Map of weather stations | Latest weather observations for NSW | Other Formats
Station Details ID: 055202 Name: GUNNEDAH AIRPORT AWS Lat: -30.95 Lon: 150.25 Height: 262.57 m
Data from the previous 72 hours. | See also: Recent months at Gunnedah Airport
Date/Time
EST
Temp
°C
App
Temp
°C
Dew
Point
Rel
Hum
%
Delta-T
°C
Wind Press
QNH
hPa
Press
MSL
hPa
Rain
since 9 am
mm
Dir
 
Spd
km/h
Gust
km/h
Spd
kts
Gust
kts
25/06:00pm 18.5 15.1 5.7 43 6.4 NW 13 19 7 10 1007.4 1006.6 0.0
25/05:30pm 19.0 15.6 5.8 42 6.6 NW 13 20 7 11 1007.0 1006.2 0.0
25/05:00pm 21.1 16.9 5.9 37 7.7 NW 17 24 9 13 1006.9 1006.1 0.0
25/04:30pm 22.6 18.2 7.6 38 7.9 NNW 20 30 11 16 1006.7 1005.9 0.0
25/04:00pm 22.3 17.1 5.7 34 8.5 NW 22 33 12 18 1006.8 1006.0 0.0
25/03:30pm 23.3 18.2 6.1 33 8.9 NNW 22 32 12 17 1006.8 1006.0 0.0
25/03:00pm 23.5 18.3 5.4 31 9.3 NW 22 30 12 16 1006.9 1006.1 0.0
25/02:30pm 23.2 17.1 6.5 34 8.7 NNW 28 37 15 20 1007.1 1006.3 0.0
25/02:00pm 23.6 18.7 8.5 38 8.2 NNW 24 32 13 17 1007.3 1006.5 0.0
25/01:30pm 22.9 17.9 6.6 35 8.5 NNW 22 35 12 19 1007.6 1006.8 0.0
25/01:00pm 23.2 17.3 6.0 33 8.9 NNW 26 39 14 21 1007.8 1007.0 0.0
25/12:30pm 23.5 19.4 8.0 37 8.3 NNW 19 26 10 14 1008.3 1007.6 0.0
25/12:00pm 22.5 19.5 9.3 43 7.2 NW 15 22 8 12 1008.8 1008.1 0.0
25/11:30am 22.1 20.0 11.2 50 6.1 NW 13 20 7 11 1009.2 1008.5 0.0
25/11:00am 21.4 20.3 10.6 50 6.0 NW 7 15 4 8 1009.7 1009.0 0.0
25/10:30am 20.7 20.1 10.5 52 5.6 NNE 4 11 2 6 1010.1 1009.4 0.0
25/10:00am 19.9 19.9 11.1 57 4.9 NNE 2 7 1 4 1010.4 1009.6 0.0
25/09:30am 18.2 16.9 11.3 64 3.8 ESE 9 11 5 6 1010.5 1009.7 0.0
25/09:00am 17.1 15.8 11.4 69 3.1 ESE 9 11 5 6 1010.7 1009.9 0.0
25/08:30am 15.8 14.0 11.0 73 2.6 ESE 11 13 6 7 1010.6 1009.8 0.0
25/08:00am 14.6 13.2 11.0 79 1.9 SE 9 11 5 6 1010.5 1009.7 0.0
25/07:30am 12.9 12.9 11.3 90 0.9 SE 2 6 1 3 1010.3 1009.5 0.0
25/07:00am 10.1 8.5 8.9 92 0.6 SSE 7 7 4 4 1009.9 1009.2 0.0
25/06:30am 9.3 7.2 8.2 93 0.5 S 9 9 5 5 1009.7 1009.0 0.0
25/06:00am 9.6 8.1 8.4 92 0.6 SSE 6 7 3 4 1009.5 1008.8 0.0
25/05:30am 9.9 8.5 8.8 93 0.5 SSE 6 6 3 3 1009.4 1008.7 0.0
25/05:00am 9.6 8.0 8.2 91 0.7 SSE 6 6 3 3 1009.3 1008.6 0.0
25/04:30am 10.3 10.1 8.9 91 0.7 CALM 0 0 0 0 1009.4 1008.7 0.0
25/04:00am 10.4 9.4 8.7 89 0.8 SSE 4 7 2 4 1009.4 1008.7 0.0
25/03:30am 11.0 9.6 9.6 91 0.7 SSW 7 7 4 4 1009.3 1008.6 0.0
25/03:00am 11.4 10.3 10.1 92 0.7 SW 6 9 3 5 1009.4 1008.7 0.0
25/02:30am 11.7 11.7 9.9 89 0.9 CALM 0 0 0 0 1009.5 1008.8 0.0
25/02:00am 12.0 12.1 10.1 88 1.0 CALM 0 0 0 0 1009.8 1009.1 0.0
25/01:30am 12.0 12.2 10.4 90 0.8 CALM 0 0 0 0 1010.1 1009.4 0.0
25/01:00am 12.2 12.4 10.4 89 0.9 CALM 0 0 0 0 1010.1 1009.4 0.0
25/12:30am 12.5 12.7 10.6 88 1.0 CALM 0 0 0 0 1010.1 1009.4 0.0
25/12:00am 12.5 12.5 9.9 84 1.4 CALM 0 0 0 0 1010.3 1009.5 0.0
 
Date/Time
EST
Temp
°C
App
Temp
°C
Dew
Point
Rel
Hum
%
Delta-T
°C
Wind Press
QNH
hPa
Press
MSL
hPa
Rain
since 9 am
mm
Dir
 
Spd
km/h
Gust
km/h
Spd
kts
Gust
kts
24/11:30pm 12.6 12.6 9.8 83 1.5 CALM 0 0 0 0 1010.3 1009.5 0.0
24/11:00pm 12.4 12.4 9.8 84 1.3 CALM 0 0 0 0 1010.1 1009.4 0.0
24/10:30pm 12.3 11.9 9.9 85 1.2 NNE 2 6 1 3 1010.1 1009.4 0.0
24/10:00pm 12.2 10.8 9.4 83 1.4 N 7 11 4 6 1010.1 1009.4 0.0
24/09:30pm 12.9 11.5 9.7 81 1.7 N 7 9 4 5 1010.1 1009.4 0.0
24/09:00pm 13.7 12.5 9.7 77 2.1 WNW 6 7 3 4 1010.0 1009.3 0.0
24/08:30pm 15.0 13.6 9.6 70 2.8 NW 7 9 4 5 1009.9 1009.2 0.0
24/08:00pm 14.9 13.4 9.3 69 2.9 NW 7 9 4 5 1009.7 1009.0 0.0
24/07:30pm 17.3 15.9 9.7 61 4.0 NW 7 9 4 5 1009.3 1008.6 0.0
24/07:00pm 16.8 15.4 9.7 63 3.8 WSW 7 7 4 4 1009.1 1008.4 0.0
24/06:30pm 17.3 15.8 9.2 59 4.3 NW 7 11 4 6 1008.7 1008.0 0.0
24/06:00pm 18.1 16.3 9.5 57 4.6 NNW 9 13 5 7 1008.4 1007.7 0.0
24/05:30pm 20.2 17.0 8.5 47 6.2 NNW 15 20 8 11 1008.0 1007.2 0.0
24/05:00pm 21.9 18.4 8.8 43 7.1 NNW 17 22 9 12 1007.8 1007.0 0.0
24/04:30pm 22.6 19.2 9.0 42 7.4 NNW 17 22 9 12 1007.7 1006.9 0.0
24/04:00pm 23.6 19.4 8.1 37 8.3 NW 20 28 11 15 1007.6 1006.8 0.0
24/03:30pm 23.9 19.9 9.1 39 8.1 NNW 20 28 11 15 1007.6 1006.8 0.0
24/03:00pm 23.4 21.0 11.5 47 6.8 NNW 15 22 8 12 1007.8 1007.0 0.0
24/02:30pm 23.9 19.9 11.9 47 6.9 NNW 24 33 13 18 1007.8 1007.0 0.0
24/02:00pm 22.8 19.9 12.4 52 6.0 NNW 19 26 10 14 1008.0 1007.2 0.0
24/01:30pm 23.8 21.0 13.1 51 6.3 NW 20 32 11 17 1008.2 1007.5 0.0
24/01:00pm 23.7 21.1 13.8 53 5.9 NW 20 30 11 16 1008.5 1007.8 0.0
24/12:30pm 23.1 20.2 13.0 53 5.9 NNW 20 28 11 15 1009.0 1008.3 0.0
24/12:00pm 22.4 20.7 13.7 58 5.1 NW 15 22 8 12 1009.5 1008.8 0.0
24/11:30am 22.1 21.3 14.0 60 4.8 NNW 11 15 6 8 1010.1 1009.4 0.0
24/11:00am 21.3 21.0 14.5 65 4.0 NW 9 17 5 9 1010.6 1009.8 0.0
24/10:30am 20.1 19.2 13.8 67 3.7 NW 11 17 6 9 1010.8 1010.0 0.0
24/10:00am 19.2 17.9 13.8 71 3.1 NW 13 20 7 11 1011.0 1010.2 0.0
24/09:30am 18.2 17.0 14.1 77 2.4 NNW 13 17 7 9 1011.3 1010.5 0.0
24/09:00am 17.4 17.9 14.1 81 1.9 NW 4 9 2 5 1011.3 1010.5 0.2
24/08:30am 15.8 15.7 13.3 85 1.4 NNW 6 7 3 4 1011.5 1010.8 0.2
24/08:00am 15.0 14.7 13.2 89 1.0 NW 7 9 4 5 1011.1 1010.3 0.2
24/07:30am 14.0 15.0 13.1 94 0.5 CALM 0 0 0 0 1010.9 1010.1 0.2
24/07:00am 13.5 13.0 12.6 94 0.5 NW 7 7 4 4 1010.7 1009.9 0.2
24/06:30am 13.2 13.9 12.1 93 0.6 CALM 0 0 0 0 1010.3 1009.5 0.2
24/06:00am 13.5 14.3 12.4 93 0.6 CALM 0 0 0 0 1009.8 1009.1 0.2
24/05:30am 13.2 12.7 11.9 92 0.7 SSW 6 7 3 4 1009.8 1009.1 0.2
24/05:00am 13.9 13.6 12.8 93 0.6 NNE 6 7 3 4 1009.7 1009.0 0.2
24/04:30am 14.1 13.6 12.8 92 0.7 ESE 7 11 4 6 1009.8 1009.1 0.2
24/04:00am 13.9 13.0 12.6 92 0.7 ESE 9 11 5 6 1009.6 1008.9 0.2
24/03:30am 14.0 14.8 12.7 92 0.7 CALM 0 0 0 0 1009.8 1009.1 0.2
24/03:00am 14.2 15.1 12.8 91 0.8 CALM 0 6 0 3 1009.9 1009.2 0.2
24/02:30am 14.4 14.3 13.3 93 0.6 W 6 9 3 5 1010.4 1009.6 0.2
24/02:00am 13.5 13.0 12.2 92 0.7 SE 6 9 3 5 1010.3 1009.5 0.2
24/01:30am 13.4 12.9 12.0 91 0.8 SSE 6 7 3 4 1010.1 1009.4 0.2
24/01:00am 13.9 14.3 12.6 92 0.7 SW 2 6 1 3 1010.5 1009.7 0.2
24/12:30am 13.8 14.5 12.2 90 0.9 CALM 0 0 0 0 1010.5 1009.7 0.2
24/12:00am 14.7 15.6 12.9 89 1.0 CALM 0 0 0 0 1010.9 1010.1 0.2
 
Date/Time
EST
Temp
°C
App
Temp
°C
Dew
Point
Rel
Hum
%
Delta-T
°C
Wind Press
QNH
hPa
Press
MSL
hPa
Rain
since 9 am
mm
Dir
 
Spd
km/h
Gust
km/h
Spd
kts
Gust
kts
23/11:30pm 15.1 16.2 13.5 90 0.9 CALM 0 0 0 0 1011.0 1010.2 0.2
23/11:00pm 15.3 15.3 13.5 89 1.0 NW 6 7 3 4 1011.2 1010.4 0.2
23/10:30pm 15.4 16.5 13.4 88 1.1 CALM 0 0 0 0 1011.5 1010.8 0.2
23/10:00pm 15.4 16.5 13.4 88 1.1 CALM 0 0 0 0 1011.6 1010.9 0.2
23/09:30pm 15.5 16.7 13.7 89 1.0 CALM 0 0 0 0 1011.7 1011.0 0.2
23/09:00pm 15.4 16.4 13.2 87 1.2 CALM 0 0 0 0 1011.7 1011.0 0.2
23/08:30pm 15.6 16.6 13.3 86 1.3 CALM 0 0 0 0 1011.6 1010.9 0.2
23/08:00pm 16.4 17.5 13.5 83 1.7 CALM 0 0 0 0 1011.5 1010.8 0.2
23/07:30pm 17.0 17.9 12.9 77 2.3 CALM 0 0 0 0 1011.5 1010.8 0.2
23/07:00pm 17.1 18.2 13.6 80 2.0 CALM 0 0 0 0 1011.4 1010.6 0.2
23/06:30pm 17.3 18.5 13.8 80 2.0 CALM 0 0 0 0 1011.3 1010.5 0.2
23/06:00pm 18.0 17.6 13.1 73 2.8 ESE 7 9 4 5 1010.7 1009.9 0.2
23/05:30pm 19.2 18.7 12.7 66 3.7 ESE 7 9 4 5 1010.5 1009.7 0.2
23/05:00pm 20.8 21.2 12.5 59 4.7 ENE 2 6 1 3 1010.4 1009.6 0.2
23/04:30pm 21.9 22.1 11.9 53 5.7 ENE 2 7 1 4 1010.3 1009.5 0.2
23/04:00pm 21.9 21.5 12.5 55 5.4 ENE 6 11 3 6 1010.1 1009.4 0.2
23/03:30pm 21.9 21.0 12.7 56 5.3 NE 9 13 5 7 1010.4 1009.6 0.2
23/03:00pm 22.1 21.5 11.8 52 5.9 N 6 13 3 7 1010.5 1009.7 0.2
23/02:30pm 22.2 21.8 12.5 54 5.6 W 6 9 3 5 1010.6 1009.8 0.2
23/02:00pm 21.8 21.5 13.2 58 5.0 NE 7 13 4 7 1010.7 1009.9 0.2
23/01:30pm 21.8 21.8 14.2 62 4.5 W 7 11 4 6 1011.0 1010.2 0.2
23/01:00pm 20.7 19.8 12.7 60 4.6 NW 9 13 5 7 1011.4 1010.6 0.2
23/12:30pm 20.3 19.8 12.5 61 4.4 N 7 11 4 6 1011.7 1011.0 0.2
23/12:00pm 19.4 18.2 12.7 65 3.8 WNW 11 15 6 8 1012.4 1011.7 0.2
23/11:30am 19.0 18.6 13.0 68 3.4 N 7 11 4 6 1013.0 1012.3 0.2
23/11:00am 18.4 17.9 12.6 69 3.3 NW 7 13 4 7 1013.5 1012.8 0.2
23/10:30am 17.5 16.6 11.5 68 3.3 NNW 7 15 4 8 1013.8 1013.1 0.0
23/10:00am 16.6 15.5 11.9 74 2.6 NW 9 13 5 7 1014.1 1013.4 0.0
23/09:30am 16.1 15.6 11.9 76 2.3 N 6 9 3 5 1014.1 1013.4 0.0
23/09:00am 15.0 14.2 11.8 81 1.7 WNW 7 11 4 6 1014.1 1013.4 0.2
23/08:30am 14.2 13.1 11.9 86 1.3 WNW 9 13 5 7 1014.0 1013.3 0.2
23/08:00am 13.1 12.1 12.2 94 0.5 NW 9 11 5 6 1013.8 1013.1 0.2
23/07:30am 11.8 12.1 11.0 95 0.4 CALM 0 0 0 0 1013.5 1012.8 0.2
23/07:00am 8.6 8.1 7.8 95 0.4 CALM 0 0 0 0 1013.5 1012.8 0.2
23/06:30am 8.0 7.4 7.2 95 0.4 CALM 0 0 0 0 1013.3 1012.6 0.2
23/06:00am 7.5 6.7 6.6 94 0.4 CALM 0 0 0 0 1013.0 1012.3 0.2
23/05:30am 8.9 8.5 8.1 95 0.4 CALM 0 0 0 0 1012.9 1012.2 0.2
23/05:00am 9.0 8.6 8.2 95 0.4 CALM 0 0 0 0 1013.0 1012.3 0.2
23/04:30am 8.2 7.6 7.3 94 0.4 CALM 0 0 0 0 1012.5 1011.8 0.2
23/04:00am 9.4 9.1 8.5 94 0.4 CALM 0 0 0 0 1012.4 1011.7 0.2
23/03:30am 9.8 9.6 8.9 94 0.4 CALM 0 0 0 0 1012.4 1011.7 0.2
23/03:00am 9.7 9.4 8.8 94 0.4 CALM 0 0 0 0 1012.4 1011.7 0.2
23/02:30am 10.3 10.2 9.4 94 0.5 CALM 0 0 0 0 1012.5 1011.8 0.2
23/02:00am 11.4 11.6 10.5 94 0.5 CALM 0 0 0 0 1012.7 1012.0 0.2
23/01:30am 11.2 11.3 10.3 94 0.5 CALM 0 0 0 0 1012.8 1012.1 0.2
23/01:00am 11.0 11.0 9.9 93 0.6 CALM 0 0 0 0 1013.1 1012.4 0.2
23/12:30am 11.6 11.8 10.5 93 0.6 CALM 0 0 0 0 1013.2 1012.5 0.2
23/12:00am 12.4 12.9 11.5 94 0.5 CALM 0 0 0 0 1013.3 1012.6 0.2
 
Date/Time
EST
Temp
°C
App
Temp
°C
Dew
Point
Rel
Hum
%
Delta-T
°C
Wind Press
QNH
hPa
Press
MSL
hPa
Rain
since 9 am
mm
Dir
 
Spd
km/h
Gust
km/h
Spd
kts
Gust
kts
22/11:30pm 12.3 11.0 11.4 94 0.5 NW 9 13 5 7 1013.3 1012.6 0.2
22/11:00pm 11.7 11.5 10.4 92 0.7 N 2 11 1 6 1013.2 1012.5 0.2
22/10:30pm 12.1 12.4 10.8 92 0.7 CALM 0 0 0 0 1013.8 1013.1 0.2
22/10:00pm 13.2 12.5 12.1 93 0.6 WNW 7 9 4 5 1014.4 1013.6 0.2
22/09:30pm 13.4 12.7 12.1 92 0.7 WNW 7 11 4 6 1014.4 1013.6 0.2
22/09:00pm 13.1 13.5 11.3 89 1.0 CALM 0 6 0 3 1014.3 1013.5 0.2
22/08:30pm 14.4 13.5 12.6 89 1.0 NW 9 11 5 6 1014.1 1013.4 0.0
22/08:00pm 14.9 14.5 13.1 89 1.0 NNW 7 9 4 5 1013.9 1013.2 0.0
22/07:30pm 15.3 14.9 13.1 87 1.2 W 7 9 4 5 1014.3 1013.5 0.0
22/07:00pm 15.2 14.5 13.1 87 1.2 W 9 11 5 6 1014.0 1013.3 0.0

Other Formats:

Comma delimited format used in spreadsheet applications
http://www.bom.gov.au/fwo/IDN60801/IDN60801.95740.axf

JavaScript Object Notation format (JSON) in row-major order
http://www.bom.gov.au/fwo/IDN60801/IDN60801.95740.json